Time;durP1;ratioP1;P1;durP2;ratioP2;P2;SDS_P1;SDS_P2;PMS_P1;PMS_P2;Temp;Humidity;BMP_temperature;BMP_pressure;BME280_temperature;BME280_humidity;BME280_pressure;Samples;Min_cycle;Max_cycle;Signal;HPM_P1;HPM_P2
2021/12/04 00:01:52;;;;;;;23.55;16.92;;;4.90;99.90;;;;;;5030340;28;20048;-85
2021/12/04 00:04:32;;;;;;;28.80;19.13;;;4.90;99.90;;;;;;4997124;28;20042;-85
2021/12/04 00:06:58;;;;;;;26.38;18.08;;;4.90;99.90;;;;;;5030075;28;20067;-85
2021/12/04 00:09:24;;;;;;;28.10;17.85;;;4.90;99.90;;;;;;5038828;28;20513;-85
2021/12/04 00:12:03;;;;;;;28.23;19.27;;;4.90;99.90;;;;;;5034656;28;20029;-85
2021/12/04 00:14:33;;;;;;;28.55;19.38;;;4.90;99.90;;;;;;5016777;28;20029;-85
2021/12/04 00:16:59;;;;;;;28.52;19.05;;;4.90;99.90;;;;;;5039069;28;20032;-85
2021/12/04 00:19:26;;;;;;;30.52;19.55;;;4.90;99.90;;;;;;5041008;28;20037;-85
2021/12/04 00:21:53;;;;;;;28.48;19.05;;;4.90;99.90;;;;;;5020638;28;20041;-86
2021/12/04 00:24:19;;;;;;;30.23;20.27;;;4.90;99.90;;;;;;5046529;28;20040;-86
2021/12/04 00:26:47;;;;;;;30.90;18.58;;;4.90;99.90;;;;;;5034238;28;20044;-85
2021/12/04 00:29:13;;;;;;;26.77;18.08;;;4.90;99.90;;;;;;5053592;28;20104;-85
2021/12/04 00:31:45;;;;;;;29.90;19.50;;;4.90;99.90;;;;;;5058839;28;20080;-85
2021/12/04 00:34:11;;;;;;;29.13;18.63;;;4.90;99.90;;;;;;5049768;28;20494;-85
2021/12/04 00:36:55;;;;;;;32.15;20.50;;;4.90;99.90;;;;;;5049900;28;20131;-85
2021/12/04 00:50:32;;;;;;;26.48;18.33;;;4.90;99.90;;;;;;5049312;28;20045;-85
2021/12/04 00:52:58;;;;;;;27.27;17.33;;;4.90;99.90;;;;;;5049654;28;20036;-85
2021/12/04 00:55:23;;;;;;;25.33;17.40;;;5.00;99.90;;;;;;5048950;28;20083;-85
2021/12/04 00:57:49;;;;;;;25.65;16.75;;;4.90;99.90;;;;;;5049574;28;20543;-86
2021/12/04 01:00:15;;;;;;;25.00;16.88;;;4.90;99.90;;;;;;5032882;28;20522;-85
2021/12/04 01:02:42;;;;;;;23.10;17.02;;;5.00;99.90;;;;;;5049149;28;20064;-85
2021/12/04 01:05:08;;;;;;;25.25;18.55;;;5.00;99.90;;;;;;5030903;28;20122;-85
2021/12/04 01:07:34;;;;;;;22.50;16.30;;;4.90;99.90;;;;;;5047234;28;20798;-85
2021/12/04 01:10:00;;;;;;;21.52;16.95;;;4.90;99.90;;;;;;5030560;28;20041;-85
2021/12/04 01:12:27;;;;;;;25.20;16.75;;;4.90;99.90;;;;;;5048873;28;20421;-85
2021/12/04 01:14:53;;;;;;;21.98;16.40;;;5.00;99.90;;;;;;5048673;28;20044;-85
2021/12/04 01:17:19;;;;;;;21.38;15.55;;;4.90;99.90;;;;;;5049587;28;20532;-85
2021/12/04 01:19:44;;;;;;;20.05;15.43;;;5.00;99.90;;;;;;5049133;28;20512;-85
2021/12/04 01:22:10;;;;;;;23.05;16.17;;;5.00;99.90;;;;;;5049004;28;20043;-85
2021/12/04 01:24:35;;;;;;;21.95;15.95;;;4.90;99.90;;;;;;5034668;28;20070;-85
2021/12/04 01:27:02;;;;;;;20.85;15.68;;;4.90;99.90;;;;;;5035915;28;20043;-85
2021/12/04 01:29:28;;;;;;;22.20;15.43;;;5.00;99.90;;;;;;5035615;28;20029;-85
2021/12/04 01:31:54;;;;;;;19.67;14.88;;;5.00;99.90;;;;;;5062004;28;20477;-85
2021/12/04 01:34:19;;;;;;;19.77;15.05;;;5.00;99.90;;;;;;5071909;28;20036;-85
2021/12/04 01:36:45;;;;;;;19.58;14.15;;;4.90;99.90;;;;;;5072488;28;20047;-85
2021/12/04 01:39:11;;;;;;;19.42;15.15;;;4.90;99.90;;;;;;5072568;28;20556;-86
2021/12/04 01:41:37;;;;;;;17.67;12.68;;;4.90;99.90;;;;;;5072213;28;20083;-85
2021/12/04 01:44:05;;;;;;;17.60;12.93;;;5.00;99.90;;;;;;5072489;28;20040;-85
2021/12/04 01:46:31;;;;;;;16.83;13.07;;;5.00;99.90;;;;;;5056151;28;20032;-85
2021/12/04 01:48:57;;;;;;;16.02;11.75;;;4.90;99.90;;;;;;5055794;28;20044;-85
2021/12/04 01:51:23;;;;;;;15.70;12.35;;;5.00;99.90;;;;;;5055509;28;20036;-85
2021/12/04 01:53:49;;;;;;;18.05;13.07;;;4.90;99.90;;;;;;5072495;28;20099;-85
2021/12/04 01:56:16;;;;;;;15.75;11.85;;;5.00;99.90;;;;;;5072014;28;20516;-85
2021/12/04 01:58:42;;;;;;;16.90;12.05;;;5.00;99.90;;;;;;5072104;28;20038;-85
2021/12/04 02:01:09;;;;;;;15.98;11.52;;;4.90;99.90;;;;;;5074603;28;20032;-85
2021/12/04 02:03:35;;;;;;;15.70;11.07;;;4.90;99.90;;;;;;5058756;28;20071;-85
2021/12/04 02:06:01;;;;;;;14.93;10.73;;;4.90;99.90;;;;;;5058836;28;20044;-85
2021/12/04 02:08:27;;;;;;;15.00;10.38;;;4.90;99.90;;;;;;5059550;28;20527;-85
2021/12/04 02:10:56;;;;;;;14.05;10.50;;;4.90;99.90;;;;;;5076224;28;20048;-85
2021/12/04 02:13:23;;;;;;;14.07;10.30;;;4.90;99.90;;;;;;5075985;28;20733;-85
2021/12/04 02:15:50;;;;;;;13.32;9.70;;;4.90;99.90;;;;;;5075638;28;20059;-85
2021/12/04 02:18:18;;;;;;;12.68;9.18;;;4.90;99.90;;;;;;5075790;28;20044;-85
2021/12/04 02:20:44;;;;;;;13.10;8.85;;;4.90;99.90;;;;;;5075677;28;20043;-85
2021/12/04 02:23:11;;;;;;;12.85;9.40;;;4.90;99.90;;;;;;5074914;28;20043;-85
2021/12/04 02:25:38;;;;;;;14.95;9.88;;;4.90;99.90;;;;;;5074940;28;20514;-85
2021/12/04 02:28:05;;;;;;;13.50;10.18;;;4.90;99.90;;;;;;5075693;28;20409;-85
2021/12/04 02:30:34;;;;;;;15.25;11.05;;;4.90;99.90;;;;;;5058561;28;20446;-85
2021/12/04 02:33:01;;;;;;;15.75;11.70;;;4.90;99.90;;;;;;5058210;28;20036;-85
2021/12/04 02:35:27;;;;;;;16.05;11.68;;;4.90;99.90;;;;;;5075123;28;20055;-85
2021/12/04 02:37:54;;;;;;;14.50;10.57;;;4.90;99.90;;;;;;5093055;28;20102;-85
2021/12/04 02:40:22;;;;;;;13.88;10.45;;;4.90;99.90;;;;;;5075215;28;20127;-85
2021/12/04 02:42:49;;;;;;;14.40;10.48;;;4.90;99.90;;;;;;5075129;28;20062;-85
2021/12/04 02:45:16;;;;;;;15.32;10.32;;;4.90;99.90;;;;;;5058159;28;20044;-85
2021/12/04 02:47:42;;;;;;;13.25;10.05;;;4.90;99.90;;;;;;5074590;28;20036;-85
2021/12/04 02:50:10;;;;;;;12.30;9.65;;;4.90;99.90;;;;;;5074626;28;20472;-85
2021/12/04 02:52:37;;;;;;;13.57;9.73;;;4.90;99.90;;;;;;5057964;28;20094;-85
2021/12/04 02:55:05;;;;;;;12.85;9.68;;;4.90;99.90;;;;;;5057864;28;20032;-85
2021/12/04 02:57:33;;;;;;;12.68;9.48;;;4.90;99.90;;;;;;5074758;28;20111;-85
2021/12/04 02:59:58;;;;;;;14.55;9.98;;;4.90;99.90;;;;;;5057546;28;20071;-83
2021/12/04 03:02:25;;;;;;;14.65;9.90;;;4.90;99.90;;;;;;5055950;28;20064;-84
2021/12/04 03:04:54;;;;;;;13.88;8.68;;;4.90;99.90;;;;;;5038012;28;20072;-85
2021/12/04 03:07:20;;;;;;;13.18;9.02;;;4.90;99.90;;;;;;5054178;28;20123;-85
2021/12/04 03:09:46;;;;;;;13.38;8.38;;;4.90;99.90;;;;;;5054432;28;20041;-84
2021/12/04 03:12:14;;;;;;;11.57;8.15;;;4.90;99.90;;;;;;5037896;28;20041;-85
2021/12/04 03:14:40;;;;;;;12.95;8.93;;;4.90;99.90;;;;;;5037657;28;20115;-85
2021/12/04 03:17:07;;;;;;;12.65;9.20;;;4.90;99.90;;;;;;5038224;28;20039;-85
2021/12/04 03:19:34;;;;;;;12.23;8.38;;;4.90;99.90;;;;;;5055700;28;20044;-85
2021/12/04 03:22:02;;;;;;;13.13;8.85;;;4.80;99.90;;;;;;5059635;28;20037;-85
2021/12/04 03:24:28;;;;;;;12.15;8.43;;;4.80;99.90;;;;;;5041303;28;20041;-86
2021/12/04 03:26:55;;;;;;;12.73;8.90;;;4.90;99.90;;;;;;5037858;28;20053;-85
2021/12/04 03:29:24;;;;;;;12.68;8.43;;;4.80;99.90;;;;;;5054124;28;20044;-85
2021/12/04 03:40:10;;;;;;;12.70;8.63;;;4.80;99.90;;;;;;5050893;28;20132;-85
2021/12/04 03:42:40;;;;;;;11.23;7.27;;;4.80;99.90;;;;;;5033810;28;20041;-85
2021/12/04 03:45:08;;;;;;;12.00;8.13;;;4.80;99.90;;;;;;5050018;28;20049;-85
2021/12/04 03:47:34;;;;;;;12.20;8.55;;;4.80;99.90;;;;;;5034099;28;20120;-85
2021/12/04 03:49:59;;;;;;;12.30;8.48;;;4.80;99.90;;;;;;5050447;28;20124;-85
2021/12/04 03:52:25;;;;;;;12.38;8.70;;;4.80;99.90;;;;;;5031200;28;20060;-85
2021/12/04 03:54:51;;;;;;;12.43;8.88;;;4.80;99.90;;;;;;5041298;28;20040;-85
2021/12/04 03:57:16;;;;;;;11.98;8.38;;;4.80;99.90;;;;;;5016853;28;20252;-85
2021/12/04 03:59:46;;;;;;;12.63;8.65;;;4.80;99.90;;;;;;5033553;28;20090;-85
2021/12/04 04:02:14;;;;;;;12.73;9.13;;;4.80;99.90;;;;;;5050599;28;20379;-85
2021/12/04 04:04:40;;;;;;;13.82;8.88;;;4.80;99.90;;;;;;5049784;28;20163;-85
2021/12/04 04:07:06;;;;;;;13.27;8.40;;;4.80;99.90;;;;;;5049799;28;20146;-85
2021/12/04 04:09:33;;;;;;;12.07;8.90;;;4.80;99.90;;;;;;5032828;28;20119;-85
2021/12/04 04:11:59;;;;;;;12.02;8.40;;;4.80;99.90;;;;;;5050183;28;20041;-85
2021/12/04 04:14:25;;;;;;;12.90;8.90;;;4.80;99.90;;;;;;5050140;28;20044;-85
2021/12/04 04:16:53;;;;;;;13.65;9.20;;;4.80;99.90;;;;;;5032737;28;20041;-86
2021/12/04 04:19:20;;;;;;;12.60;8.82;;;4.90;99.90;;;;;;5049865;28;20142;-85
2021/12/04 04:21:46;;;;;;;12.15;8.63;;;4.80;99.90;;;;;;5049936;28;20041;-85
2021/12/04 04:24:17;;;;;;;12.90;8.73;;;4.80;99.90;;;;;;5051533;28;20047;-85
2021/12/04 04:26:44;;;;;;;12.90;9.07;;;4.80;99.90;;;;;;5053004;28;20119;-85
2021/12/04 04:29:11;;;;;;;13.32;8.95;;;4.80;99.90;;;;;;5053162;28;20040;-85
2021/12/04 04:31:46;;;;;;;13.13;8.65;;;4.90;99.90;;;;;;5043970;28;20112;-85
2021/12/04 04:34:19;;;;;;;13.43;9.45;;;4.80;99.90;;;;;;5073249;28;20512;-85
2021/12/04 04:36:57;;;;;;;13.45;8.32;;;4.90;99.90;;;;;;5056385;28;20050;-85
2021/12/04 05:14:35;;;;;;;12.00;8.55;;;5.00;99.90;;;;;;5072147;28;20130;-85
2021/12/04 05:17:10;;;;;;;12.75;8.80;;;5.00;99.90;;;;;;5073064;28;20040;-85
2021/12/04 05:19:45;;;;;;;12.32;8.57;;;5.00;99.90;;;;;;5056141;28;20475;-85
2021/12/04 05:22:18;;;;;;;15.00;9.60;;;5.00;99.90;;;;;;5055972;28;20539;-85
2021/12/04 05:24:44;;;;;;;13.90;9.55;;;5.00;99.90;;;;;;5071417;28;20044;-85
2021/12/04 05:27:10;;;;;;;13.70;9.25;;;5.00;99.90;;;;;;5055902;28;20411;-85
2021/12/04 05:29:36;;;;;;;14.02;9.00;;;5.00;99.90;;;;;;5072087;28;20105;-85
2021/12/04 05:32:04;;;;;;;12.45;8.90;;;5.00;99.90;;;;;;5055928;28;20075;-85
2021/12/04 05:34:30;;;;;;;13.35;9.70;;;5.00;99.90;;;;;;5072121;28;20230;-85
2021/12/04 05:36:56;;;;;;;13.38;10.32;;;5.00;99.90;;;;;;5059736;28;20464;-85
2021/12/04 05:39:22;;;;;;;14.02;9.65;;;5.00;99.90;;;;;;5059989;28;20044;-85
2021/12/04 05:41:47;;;;;;;14.23;10.07;;;5.00;99.90;;;;;;5076734;28;20050;-85
2021/12/04 05:44:15;;;;;;;12.88;9.50;;;5.00;99.90;;;;;;5075902;28;20492;-85
2021/12/04 05:47:10;;;;;;;13.63;10.20;;;5.10;99.90;;;;;;5059405;28;20043;-85
2021/12/04 05:49:47;;;;;;;13.85;9.80;;;5.10;99.90;;;;;;5075134;28;20433;-85
2021/12/04 05:57:08;;;;;;;14.68;10.50;;;5.00;99.90;;;;;;5076010;28;20400;-85
2021/12/04 05:59:34;;;;;;;12.90;8.93;;;5.00;99.90;;;;;;5076047;28;20051;-85
2021/12/04 06:02:00;;;;;;;14.60;10.02;;;5.00;99.90;;;;;;5058907;28;20036;-85
2021/12/04 06:04:26;;;;;;;14.32;10.52;;;5.00;99.90;;;;;;5076607;28;20174;-85
2021/12/04 06:06:52;;;;;;;15.10;10.38;;;5.00;99.90;;;;;;5076740;28;20710;-85
2021/12/04 06:09:17;;;;;;;13.85;9.52;;;5.00;99.90;;;;;;5077806;28;20051;-85
2021/12/04 06:11:43;;;;;;;14.80;10.35;;;5.10;99.90;;;;;;5083188;28;20036;-85
2021/12/04 06:14:09;;;;;;;13.75;10.00;;;5.00;99.90;;;;;;5078818;28;20050;-85
2021/12/04 06:16:35;;;;;;;13.35;9.63;;;5.10;99.90;;;;;;5059287;28;20115;-85
2021/12/04 06:19:10;;;;;;;15.15;10.30;;;5.10;99.90;;;;;;5058851;28;20444;-85
2021/12/04 06:24:20;;;;;;;15.60;11.15;;;5.10;99.90;;;;;;5074548;28;20504;-85
2021/12/04 06:26:46;;;;;;;14.63;10.57;;;5.10;99.90;;;;;;5059054;28;20101;-85
2021/12/04 06:29:11;;;;;;;15.23;10.77;;;5.10;99.90;;;;;;5075295;28;20036;-85
2021/12/04 06:31:37;;;;;;;15.65;11.07;;;5.10;99.90;;;;;;5058740;28;20119;-85
2021/12/04 06:34:03;;;;;;;15.80;11.15;;;5.10;99.90;;;;;;5075036;28;20085;-85
2021/12/04 06:36:28;;;;;;;17.27;11.90;;;5.10;99.90;;;;;;5075007;28;20063;-86
2021/12/04 06:38:54;;;;;;;16.35;12.02;;;5.10;99.90;;;;;;5058265;28;20067;-85
2021/12/04 06:41:20;;;;;;;16.35;10.80;;;5.10;99.90;;;;;;5075463;28;20040;-85
2021/12/04 06:43:49;;;;;;;17.75;13.20;;;5.10;99.90;;;;;;5058149;28;20035;-85
2021/12/04 06:46:16;;;;;;;16.60;12.55;;;5.10;99.90;;;;;;5074436;28;20044;-85
2021/12/04 06:54:05;;;;;;;18.42;12.73;;;5.10;99.90;;;;;;5074009;28;20082;-86
2021/12/04 06:56:35;;;;;;;18.00;12.48;;;5.10;99.90;;;;;;5074954;28;20036;-85
2021/12/04 06:59:08;;;;;;;16.48;11.68;;;5.10;99.90;;;;;;5075184;28;20089;-85
2021/12/04 07:01:35;;;;;;;16.83;11.05;;;5.10;99.90;;;;;;5074568;28;20557;-85
2021/12/04 07:04:01;;;;;;;18.23;12.48;;;5.10;99.90;;;;;;5057928;28;20409;-85
2021/12/04 07:06:27;;;;;;;16.75;12.27;;;5.10;99.90;;;;;;5057951;28;20047;-85
2021/12/04 07:08:54;;;;;;;17.95;12.13;;;5.20;99.90;;;;;;5074791;28;20074;-85
2021/12/04 07:11:20;;;;;;;17.15;11.98;;;5.20;99.90;;;;;;5057707;28;20071;-85
2021/12/04 07:13:46;;;;;;;18.52;12.80;;;5.20;99.90;;;;;;5074254;28;20070;-84
2021/12/04 07:16:15;;;;;;;18.60;13.00;;;5.20;99.90;;;;;;5074439;28;20508;-85
2021/12/04 07:18:41;;;;;;;18.50;13.75;;;5.20;99.90;;;;;;5074332;28;20036;-85
2021/12/04 07:21:07;;;;;;;18.05;12.20;;;5.20;99.90;;;;;;5092650;28;20136;-85
2021/12/04 07:23:32;;;;;;;19.85;12.98;;;5.20;99.90;;;;;;5056705;28;20032;-85
2021/12/04 07:25:58;;;;;;;19.88;13.15;;;5.20;99.90;;;;;;5074733;28;20413;-85
2021/12/04 07:28:24;;;;;;;18.83;12.82;;;5.20;99.90;;;;;;5057717;28;20119;-85
2021/12/04 07:30:50;;;;;;;19.30;13.90;;;5.20;99.90;;;;;;5074431;28;20123;-85
2021/12/04 07:33:16;;;;;;;20.13;13.65;;;5.30;99.90;;;;;;5053427;28;20033;-85
2021/12/04 07:35:41;;;;;;;20.73;13.07;;;5.30;99.90;;;;;;5044321;28;20033;-85
2021/12/04 07:38:07;;;;;;;21.33;14.00;;;5.20;99.90;;;;;;5053893;28;20048;-85
2021/12/04 07:40:33;;;;;;;20.85;13.50;;;5.30;99.90;;;;;;5053861;28;20043;-85
2021/12/04 07:42:59;;;;;;;19.08;12.70;;;5.30;99.90;;;;;;5054075;28;20140;-85
2021/12/04 07:45:24;;;;;;;20.40;13.77;;;5.30;99.90;;;;;;5053885;28;20032;-85
2021/12/04 07:47:50;;;;;;;18.73;13.30;;;5.30;99.90;;;;;;5054311;28;20044;-85
2021/12/04 07:50:16;;;;;;;23.63;15.15;;;5.30;99.90;;;;;;5049294;28;20501;-83
2021/12/04 07:52:42;;;;;;;21.33;13.60;;;5.30;99.90;;;;;;5065897;28;20044;-84
2021/12/04 07:55:09;;;;;;;23.40;13.80;;;5.30;99.90;;;;;;5053448;28;20045;-84
2021/12/04 07:57:35;;;;;;;19.20;13.95;;;5.30;99.90;;;;;;5036550;28;20040;-85
2021/12/04 08:00:03;;;;;;;19.90;13.15;;;5.30;99.90;;;;;;5053583;28;20047;-84
2021/12/04 08:02:29;;;;;;;20.27;13.63;;;5.40;99.90;;;;;;5053234;28;20066;-84
2021/12/04 08:04:54;;;;;;;22.13;14.55;;;5.40;99.90;;;;;;5053479;28;20105;-86
2021/12/04 08:07:20;;;;;;;18.17;13.07;;;5.40;99.90;;;;;;5036748;28;20477;-84
2021/12/04 08:09:47;;;;;;;23.05;14.55;;;5.40;99.90;;;;;;5069243;28;20039;-85
2021/12/04 08:12:13;;;;;;;22.48;13.05;;;5.40;99.90;;;;;;5053811;28;20446;-86
2021/12/04 08:14:39;;;;;;;20.40;13.63;;;5.40;99.90;;;;;;5053580;28;20040;-85
2021/12/04 08:17:05;;;;;;;20.88;13.38;;;5.50;99.90;;;;;;5054024;28;20032;-85
2021/12/04 08:19:30;;;;;;;20.13;12.90;;;5.50;99.90;;;;;;5036656;28;20036;-85
2021/12/04 08:21:56;;;;;;;20.30;13.15;;;5.50;99.90;;;;;;5053102;28;20040;-85
2021/12/04 08:24:22;;;;;;;19.75;13.30;;;5.40;99.90;;;;;;5069733;28;20117;-85
2021/12/04 08:26:47;;;;;;;19.90;12.52;;;5.50;99.90;;;;;;5053443;28;20036;-85
2021/12/04 08:29:13;;;;;;;20.60;13.57;;;5.50;99.90;;;;;;5036400;28;20032;-85
2021/12/04 08:31:40;;;;;;;18.38;12.77;;;5.50;99.90;;;;;;5032759;28;20482;-85
2021/12/04 08:34:05;;;;;;;19.13;12.02;;;5.50;99.90;;;;;;5049885;28;20123;-85
2021/12/04 08:36:32;;;;;;;18.67;12.57;;;5.50;99.90;;;;;;5051076;28;20538;-85
2021/12/04 08:38:59;;;;;;;22.20;13.65;;;5.50;99.90;;;;;;5033144;28;20041;-85
2021/12/04 08:41:26;;;;;;;22.65;13.35;;;5.50;99.90;;;;;;5034576;28;20074;-85
2021/12/04 08:43:54;;;;;;;20.15;12.93;;;5.50;99.90;;;;;;5051072;28;20039;-85
2021/12/04 08:46:20;;;;;;;20.40;12.75;;;5.50;99.90;;;;;;5064329;28;20521;-85
2021/12/04 08:48:52;;;;;;;19.95;12.82;;;5.50;99.90;;;;;;5051987;28;20041;-85
2021/12/04 08:51:21;;;;;;;21.42;12.15;;;5.50;99.90;;;;;;5031205;28;20044;-85
2021/12/04 08:53:47;;;;;;;21.35;13.52;;;5.60;99.90;;;;;;5049671;28;20067;-85
2021/12/04 08:56:13;;;;;;;22.98;13.85;;;5.50;99.90;;;;;;5049414;28;20041;-85
2021/12/04 08:58:40;;;;;;;24.40;13.15;;;5.60;99.90;;;;;;5033001;28;20178;-85
2021/12/04 09:01:13;;;;;;;22.13;12.20;;;5.60;99.90;;;;;;5033086;28;20097;-85
2021/12/04 09:03:43;;;;;;;22.25;12.10;;;5.50;99.90;;;;;;5048928;28;20516;-85
2021/12/04 09:06:08;;;;;;;22.95;12.38;;;5.50;99.90;;;;;;5048842;28;20041;-85
2021/12/04 09:08:34;;;;;;;23.05;13.80;;;5.50;99.90;;;;;;5032750;28;20037;-85
2021/12/04 09:11:05;;;;;;;23.25;12.40;;;5.50;99.90;;;;;;5035753;28;20060;-85
2021/12/04 09:13:32;;;;;;;22.27;12.63;;;5.60;99.90;;;;;;5053329;28;20037;-85
2021/12/04 09:15:58;;;;;;;23.95;13.30;;;5.60;99.90;;;;;;5053713;28;20055;-85
2021/12/04 09:18:25;;;;;;;22.17;13.38;;;5.60;99.90;;;;;;5036993;28;20072;-86
2021/12/04 09:20:53;;;;;;;24.52;13.00;;;5.60;99.90;;;;;;5036656;28;20037;-85
2021/12/04 09:23:20;;;;;;;23.13;13.43;;;5.60;99.90;;;;;;5055564;28;20123;-85
2021/12/04 09:25:51;;;;;;;23.55;13.80;;;5.60;99.90;;;;;;5039505;28;20044;-85
2021/12/04 09:30:58;;;;;;;22.83;13.02;;;5.60;99.90;;;;;;5052048;28;20041;-85
2021/12/04 10:11:23;;;;;;;28.25;15.70;;;5.80;99.90;;;;;;5054350;28;20481;-85
2021/12/04 10:12:34;;;;;;;30.20;16.42;;;5.80;99.90;;;;;;5055317;28;20036;-85
2021/12/04 10:21:00;;;;;;;30.95;16.33;;;5.90;99.90;;;;;;5055612;28;20040;-85
2021/12/04 10:23:50;;;;;;;28.60;15.18;;;6.00;99.90;;;;;;5046389;28;20068;-85
2021/12/04 10:34:52;;;;;;;26.30;15.73;;;6.10;99.90;;;;;;5055038;28;20048;-85
2021/12/04 10:37:25;;;;;;;30.02;16.95;;;6.00;99.90;;;;;;5055814;28;20067;-85
2021/12/04 10:39:52;;;;;;;24.90;13.38;;;6.10;99.90;;;;;;5039305;28;20508;-85
2021/12/04 10:42:30;;;;;;;28.65;17.25;;;6.00;99.90;;;;;;5055153;28;20394;-85
2021/12/04 10:44:57;;;;;;;26.33;15.25;;;6.10;99.90;;;;;;5054936;28;20044;-85
2021/12/04 10:47:27;;;;;;;27.60;17.45;;;6.10;99.90;;;;;;5054866;28;20051;-85
2021/12/04 10:50:59;;;;;;;27.48;16.52;;;6.10;99.90;;;;;;5038478;28;20052;-86
2021/12/04 10:53:11;;;;;;;28.58;17.52;;;6.10;99.90;;;;;;5044515;28;20048;-85
2021/12/04 11:01:10;;;;;;;29.55;16.45;;;6.10;99.90;;;;;;5054951;28;20055;-85
2021/12/04 11:03:43;;;;;;;31.08;18.80;;;6.20;99.90;;;;;;5067389;28;20306;-85
2021/12/04 11:39:09;;;;;;;47.13;24.27;;;6.10;99.90;;;;;;5050968;28;20045;-85
2021/12/04 11:43:56;;;;;;;51.28;27.55;;;6.00;99.90;;;;;;5050727;28;20041;-85
2021/12/04 11:46:41;;;;;;;54.55;27.25;;;6.00;99.90;;;;;;5050863;28;20060;-85
2021/12/04 11:49:13;;;;;;;55.28;27.63;;;6.00;99.90;;;;;;5050546;28;20033;-85
2021/12/04 11:51:55;;;;;;;47.03;22.92;;;6.00;99.90;;;;;;5050905;28;20051;-85
2021/12/04 11:54:27;;;;;;;51.75;27.60;;;6.00;99.90;;;;;;5050095;28;20124;-85
2021/12/04 11:57:01;;;;;;;48.17;24.00;;;6.00;99.90;;;;;;5051956;28;20047;-85
2021/12/04 11:59:32;;;;;;;52.55;27.73;;;6.10;99.90;;;;;;5049858;28;20049;-85
2021/12/04 12:02:00;;;;;;;50.50;27.02;;;6.10;99.90;;;;;;5050371;28;20068;-85
2021/12/04 12:04:41;;;;;;;52.95;29.65;;;6.10;99.90;;;;;;5050148;28;20044;-85
2021/12/04 12:07:17;;;;;;;53.85;29.40;;;6.10;99.90;;;;;;5050070;28;20485;-85
2021/12/04 12:09:45;;;;;;;50.95;26.80;;;6.10;99.90;;;;;;5049926;28;20052;-85
2021/12/04 12:12:14;;;;;;;50.47;26.88;;;6.10;99.90;;;;;;5049773;28;20041;-85
2021/12/04 12:14:48;;;;;;;48.95;26.17;;;6.20;99.90;;;;;;5049700;28;20126;-85
2021/12/04 12:17:16;;;;;;;51.90;26.45;;;6.20;99.90;;;;;;5050334;28;20041;-85
2021/12/04 12:19:50;;;;;;;43.75;24.90;;;6.20;99.90;;;;;;5050085;28;20123;-85
2021/12/04 12:25:26;;;;;;;46.67;25.40;;;6.30;99.90;;;;;;5049213;28;20131;-85
2021/12/04 12:31:49;;;;;;;47.15;25.63;;;6.30;99.90;;;;;;5049676;28;20044;-85
2021/12/04 12:33:42;;;;;;;43.13;24.70;;;6.30;99.90;;;;;;5052311;28;20053;-85
2021/12/04 12:36:14;;;;;;;48.47;25.13;;;6.30;99.90;;;;;;5052910;28;20422;-84
2021/12/04 12:38:51;;;;;;;43.85;24.77;;;6.30;99.90;;;;;;5046867;28;20088;-85
2021/12/04 12:41:34;;;;;;;45.90;25.83;;;6.30;99.90;;;;;;5017047;28;20040;-85
2021/12/04 12:44:08;;;;;;;51.13;21.75;;;6.30;99.90;;;;;;5016132;28;20455;-85
2021/12/04 12:46:53;;;;;;;49.30;26.38;;;6.30;99.90;;;;;;5016483;28;20041;-85
2021/12/04 12:49:40;;;;;;;45.55;26.50;;;6.30;99.90;;;;;;5032909;28;20047;-85
2021/12/04 12:52:10;;;;;;;50.53;27.08;;;6.30;99.90;;;;;;5032746;28;20160;-84
2021/12/04 12:54:49;;;;;;;48.38;27.00;;;6.30;99.90;;;;;;5032370;28;20075;-85
2021/12/04 12:57:27;;;;;;;50.92;26.52;;;6.30;99.90;;;;;;5032722;28;20041;-85
2021/12/04 13:14:06;;;;;;;52.42;28.35;;;6.30;99.90;;;;;;5067192;28;20040;-84
2021/12/04 13:16:33;;;;;;;56.13;28.98;;;6.30;99.90;;;;;;5040743;28;20037;-84
2021/12/04 13:19:05;;;;;;;48.15;27.50;;;6.30;99.90;;;;;;5043240;28;20048;-85
2021/12/04 13:21:33;;;;;;;49.45;27.25;;;6.30;99.90;;;;;;5042021;28;20045;-85
2021/12/04 13:23:59;;;;;;;50.50;27.85;;;6.30;99.90;;;;;;5042302;28;20048;-85
2021/12/04 13:26:31;;;;;;;48.10;27.55;;;6.30;99.90;;;;;;5040495;28;20049;-85
2021/12/04 13:28:59;;;;;;;49.72;27.75;;;6.30;99.90;;;;;;5035051;28;20398;-85
2021/12/04 13:31:26;;;;;;;50.55;27.50;;;6.30;99.90;;;;;;5052705;28;20040;-85
2021/12/04 13:33:52;;;;;;;47.97;27.95;;;6.30;99.90;;;;;;5052369;28;20037;-85
2021/12/04 13:36:21;;;;;;;49.75;27.05;;;6.30;99.90;;;;;;5035845;28;20090;-85
2021/12/04 13:39:11;;;;;;;46.53;24.77;;;6.30;99.90;;;;;;5052030;28;20045;-85
2021/12/04 13:41:39;;;;;;;48.97;27.88;;;6.40;99.90;;;;;;5051938;28;20079;-85
2021/12/04 13:44:08;;;;;;;47.85;25.58;;;6.40;99.90;;;;;;5052023;28;20103;-85
2021/12/04 13:46:46;;;;;;;48.80;27.20;;;6.40;99.90;;;;;;5050370;28;20045;-85
2021/12/04 13:49:16;;;;;;;46.47;26.45;;;6.40;99.90;;;;;;5072204;28;20052;-85
2021/12/04 13:51:42;;;;;;;47.28;25.98;;;6.40;99.90;;;;;;5071981;28;20067;-85
2021/12/04 13:54:09;;;;;;;47.65;28.67;;;6.40;99.90;;;;;;5071548;28;20128;-84
2021/12/04 13:56:35;;;;;;;53.80;27.92;;;6.40;99.90;;;;;;5073162;28;20047;-85
2021/12/04 13:59:04;;;;;;;50.47;27.02;;;6.40;99.90;;;;;;5075380;28;20040;-85
2021/12/04 14:01:36;;;;;;;51.10;27.05;;;6.40;99.90;;;;;;5059821;28;20040;-85
2021/12/04 14:04:03;;;;;;;48.60;28.67;;;6.50;99.90;;;;;;5077776;28;20036;-85
2021/12/04 14:06:30;;;;;;;48.55;27.60;;;6.50;99.90;;;;;;5049264;28;20117;-84
2021/12/04 14:09:03;;;;;;;47.67;26.98;;;6.40;99.90;;;;;;5060528;28;20083;-85
2021/12/04 14:11:34;;;;;;;47.95;28.35;;;6.40;99.90;;;;;;5055966;28;20562;-85
2021/12/04 14:14:17;;;;;;;51.08;27.27;;;6.40;99.90;;;;;;5049642;28;20510;-85
2021/12/04 14:16:45;;;;;;;52.33;27.50;;;6.40;99.90;;;;;;5029992;28;20039;-85
2021/12/04 14:19:17;;;;;;;51.75;28.02;;;6.40;99.90;;;;;;5030684;28;20505;-85
2021/12/04 14:21:59;;;;;;;48.00;27.63;;;6.50;99.90;;;;;;5061878;28;20443;-85
2021/12/04 14:24:33;;;;;;;47.75;26.80;;;6.50;99.90;;;;;;5045088;28;20075;-85
2021/12/04 14:27:02;;;;;;;47.53;26.70;;;6.40;99.90;;;;;;5027781;28;20076;-85
2021/12/04 14:29:36;;;;;;;49.25;28.38;;;6.40;99.90;;;;;;5054610;28;20056;-85
2021/12/04 14:32:04;;;;;;;56.22;28.50;;;6.40;99.90;;;;;;5038203;28;20071;-85
2021/12/04 14:34:30;;;;;;;47.83;28.00;;;6.40;99.90;;;;;;5072777;28;20072;-85
2021/12/04 14:37:12;;;;;;;51.30;28.30;;;6.40;99.90;;;;;;5055642;28;20094;-85
2021/12/04 14:39:47;;;;;;;44.83;26.38;;;6.40;99.90;;;;;;5071344;28;20237;-85
2021/12/04 14:42:25;;;;;;;48.00;26.13;;;6.40;99.90;;;;;;5054939;28;20037;-85
2021/12/04 14:44:55;;;;;;;47.50;27.33;;;6.40;99.90;;;;;;5054361;28;20040;-85
2021/12/04 14:47:22;;;;;;;48.10;26.40;;;6.50;99.90;;;;;;5072521;28;20037;-85
2021/12/04 14:49:51;;;;;;;50.83;26.17;;;6.40;99.90;;;;;;5072876;28;20526;-85
2021/12/04 14:52:22;;;;;;;54.80;28.50;;;6.40;99.90;;;;;;5038064;28;20082;-85
2021/12/04 14:54:50;;;;;;;43.78;26.63;;;6.40;99.90;;;;;;5054487;28;20127;-85
2021/12/04 14:57:19;;;;;;;47.97;26.85;;;6.40;99.90;;;;;;5037958;28;20036;-85
2021/12/04 14:59:45;;;;;;;47.65;26.88;;;6.40;99.90;;;;;;5054546;28;20046;-85
2021/12/04 15:02:19;;;;;;;44.60;25.38;;;6.40;99.90;;;;;;5054718;28;20489;-84
2021/12/04 15:04:45;;;;;;;44.97;25.10;;;6.40;99.90;;;;;;5054876;28;20458;-84
2021/12/04 15:07:19;;;;;;;42.72;25.90;;;6.40;99.90;;;;;;5070317;28;20508;-85
2021/12/04 15:09:45;;;;;;;43.53;26.50;;;6.40;99.90;;;;;;5037417;28;20040;-85
2021/12/04 15:12:11;;;;;;;41.50;25.70;;;6.40;99.90;;;;;;5054738;28;20032;-85
2021/12/04 15:14:37;;;;;;;44.70;26.90;;;6.50;99.90;;;;;;5071103;28;20163;-85
2021/12/04 15:17:13;;;;;;;43.28;26.48;;;6.50;99.90;;;;;;5038090;28;20032;-85
2021/12/04 15:19:41;;;;;;;47.28;27.08;;;6.40;99.90;;;;;;5054219;28;20051;-85
2021/12/04 15:22:21;;;;;;;40.42;25.70;;;6.40;99.90;;;;;;5053904;28;20409;-85
2021/12/04 15:24:48;;;;;;;44.63;25.92;;;6.40;99.90;;;;;;5036388;28;20466;-84
2021/12/04 15:27:18;;;;;;;43.50;27.83;;;6.40;99.90;;;;;;5052601;28;20093;-84
2021/12/04 15:29:49;;;;;;;45.17;28.33;;;6.40;99.90;;;;;;5053948;28;20037;-85
2021/12/04 15:32:22;;;;;;;42.97;26.17;;;6.40;99.90;;;;;;5053509;28;20029;-84
2021/12/04 15:34:53;;;;;;;;;;;6.50;99.90;;;;;;5038270;28;20119;-85
2021/12/04 15:37:34;;;;;;;35.35;22.58;;;6.40;99.90;;;;;;5054032;28;19920;-85
2021/12/04 15:40:00;;;;;;;36.83;23.35;;;6.40;99.90;;;;;;5054183;28;20048;-85
2021/12/04 15:42:29;;;;;;;35.60;23.67;;;6.40;99.90;;;;;;5053226;28;20037;-85
2021/12/04 15:45:12;;;;;;;38.75;24.23;;;6.40;99.90;;;;;;5070619;28;20044;-85
2021/12/04 15:47:48;;;;;;;36.17;20.58;;;6.40;99.90;;;;;;5053805;28;20044;-85
2021/12/04 15:53:08;;;;;;;36.08;22.90;;;6.40;99.90;;;;;;5053846;28;20080;-85